sensor_id;sensor_type;location;lat;lon;timestamp;pressure;altitude;pressure_sealevel;temperature;humidity
71948;BME280;63257;55.082;38.772;2023-12-20T00:00:59;98155.28;;;3.76;100.00
71948;BME280;63257;55.082;38.772;2023-12-20T00:03:25;98153.44;;;3.78;100.00
71948;BME280;63257;55.082;38.772;2023-12-20T00:05:51;98142.31;;;3.74;100.00
71948;BME280;63257;55.082;38.772;2023-12-20T00:08:16;98166.22;;;3.83;100.00
71948;BME280;63257;55.082;38.772;2023-12-20T00:10:43;98161.00;;;3.83;100.00
71948;BME280;63257;55.082;38.772;2023-12-20T00:13:10;98153.00;;;3.86;100.00
71948;BME280;63257;55.082;38.772;2023-12-20T00:15:35;98149.38;;;3.88;100.00
71948;BME280;63257;55.082;38.772;2023-12-20T00:18:01;98152.09;;;3.87;100.00
71948;BME280;63257;55.082;38.772;2023-12-20T00:20:28;98131.78;;;3.76;99.72
71948;BME280;63257;55.082;38.772;2023-12-20T00:22:56;98134.00;;;3.84;99.57
71948;BME280;63257;55.082;38.772;2023-12-20T00:25:24;98148.06;;;3.97;98.99
71948;BME280;63257;55.082;38.772;2023-12-20T00:27:49;98131.81;;;3.92;98.56
71948;BME280;63257;55.082;38.772;2023-12-20T00:30:15;98155.53;;;4.03;99.03
71948;BME280;63257;55.082;38.772;2023-12-20T00:32:41;98155.81;;;3.99;98.93
71948;BME280;63257;55.082;38.772;2023-12-20T00:35:18;98143.34;;;3.88;99.03
71948;BME280;63257;55.082;38.772;2023-12-20T00:37:44;98146.09;;;4.01;98.60
71948;BME280;63257;55.082;38.772;2023-12-20T00:40:10;98148.63;;;4.02;98.57
71948;BME280;63257;55.082;38.772;2023-12-20T00:42:37;98148.81;;;3.99;98.05
71948;BME280;63257;55.082;38.772;2023-12-20T00:45:03;98161.03;;;3.99;98.26
71948;BME280;63257;55.082;38.772;2023-12-20T00:47:31;98124.56;;;3.81;98.01
71948;BME280;63257;55.082;38.772;2023-12-20T00:49:57;98147.38;;;3.94;97.59
71948;BME280;63257;55.082;38.772;2023-12-20T00:52:23;98169.47;;;4.04;97.98
71948;BME280;63257;55.082;38.772;2023-12-20T00:54:50;98164.97;;;4.06;97.75
71948;BME280;63257;55.082;38.772;2023-12-20T00:57:16;98172.81;;;4.06;97.29
71948;BME280;63257;55.082;38.772;2023-12-20T00:59:42;98146.28;;;3.98;96.85
71948;BME280;63257;55.082;38.772;2023-12-20T01:02:08;98148.88;;;3.98;97.03
71948;BME280;63257;55.082;38.772;2023-12-20T01:04:34;98160.84;;;4.02;96.83
71948;BME280;63257;55.082;38.772;2023-12-20T01:07:00;98162.53;;;4.03;96.82
71948;BME280;63257;55.082;38.772;2023-12-20T01:09:26;98175.00;;;3.98;97.19
71948;BME280;63257;55.082;38.772;2023-12-20T01:11:53;98158.16;;;3.87;97.20
71948;BME280;63257;55.082;38.772;2023-12-20T01:14:19;98158.06;;;3.89;97.13
71948;BME280;63257;55.082;38.772;2023-12-20T01:16:45;98148.47;;;3.89;96.43
71948;BME280;63257;55.082;38.772;2023-12-20T01:19:11;98158.50;;;3.97;96.78
71948;BME280;63257;55.082;38.772;2023-12-20T01:21:37;98136.34;;;3.88;96.69
71948;BME280;63257;55.082;38.772;2023-12-20T01:24:03;98138.81;;;3.92;96.17
71948;BME280;63257;55.082;38.772;2023-12-20T01:26:29;98166.75;;;4.05;96.18
71948;BME280;63257;55.082;38.772;2023-12-20T01:28:54;98145.44;;;3.97;96.05
71948;BME280;63257;55.082;38.772;2023-12-20T01:31:20;98167.50;;;4.07;95.88
71948;BME280;63257;55.082;38.772;2023-12-20T01:33:46;98160.59;;;4.06;95.86
71948;BME280;63257;55.082;38.772;2023-12-20T01:36:12;98160.16;;;4.14;96.42
71948;BME280;63257;55.082;38.772;2023-12-20T01:38:38;98126.22;;;3.98;95.82
71948;BME280;63257;55.082;38.772;2023-12-20T01:41:04;98157.16;;;4.06;96.73
71948;BME280;63257;55.082;38.772;2023-12-20T01:43:30;98140.97;;;3.99;96.32
71948;BME280;63257;55.082;38.772;2023-12-20T01:45:57;98137.75;;;4.10;96.37
71948;BME280;63257;55.082;38.772;2023-12-20T01:48:24;98131.03;;;4.06;96.54
71948;BME280;63257;55.082;38.772;2023-12-20T01:50:51;98132.38;;;4.13;96.24
71948;BME280;63257;55.082;38.772;2023-12-20T01:53:19;98124.03;;;4.06;96.35
71948;BME280;63257;55.082;38.772;2023-12-20T01:55:47;98130.03;;;4.08;96.40
71948;BME280;63257;55.082;38.772;2023-12-20T01:58:16;98099.06;;;3.86;96.65
71948;BME280;63257;55.082;38.772;2023-12-20T02:00:42;98121.41;;;4.06;96.36
71948;BME280;63257;55.082;38.772;2023-12-20T02:03:08;98118.16;;;4.03;96.61
71948;BME280;63257;55.082;38.772;2023-12-20T02:05:35;98117.25;;;4.04;96.33
71948;BME280;63257;55.082;38.772;2023-12-20T02:08:02;98092.81;;;3.89;96.28
71948;BME280;63257;55.082;38.772;2023-12-20T02:10:28;98111.25;;;4.02;96.59
71948;BME280;63257;55.082;38.772;2023-12-20T02:12:55;98083.03;;;3.93;96.26
71948;BME280;63257;55.082;38.772;2023-12-20T02:15:21;98071.84;;;3.90;96.50
71948;BME280;63257;55.082;38.772;2023-12-20T02:17:49;98088.03;;;3.97;96.63
71948;BME280;63257;55.082;38.772;2023-12-20T02:20:35;98094.25;;;3.95;96.48
71948;BME280;63257;55.082;38.772;2023-12-20T02:23:00;98103.78;;;3.96;96.36
71948;BME280;63257;55.082;38.772;2023-12-20T02:25:26;98087.09;;;3.82;96.40
71948;BME280;63257;55.082;38.772;2023-12-20T02:27:52;98105.88;;;3.89;96.42
71948;BME280;63257;55.082;38.772;2023-12-20T02:30:18;98103.19;;;3.90;96.13
71948;BME280;63257;55.082;38.772;2023-12-20T02:32:44;98116.56;;;4.00;95.49
71948;BME280;63257;55.082;38.772;2023-12-20T02:35:09;98129.25;;;4.06;95.39
71948;BME280;63257;55.082;38.772;2023-12-20T02:37:35;98092.91;;;3.87;95.11
71948;BME280;63257;55.082;38.772;2023-12-20T02:40:01;98134.06;;;4.14;94.94
71948;BME280;63257;55.082;38.772;2023-12-20T02:42:29;98108.38;;;4.06;94.73
71948;BME280;63257;55.082;38.772;2023-12-20T02:44:55;98109.41;;;4.04;93.97
71948;BME280;63257;55.082;38.772;2023-12-20T02:47:21;98104.19;;;4.04;94.17
71948;BME280;63257;55.082;38.772;2023-12-20T02:49:47;98116.13;;;4.08;93.92
71948;BME280;63257;55.082;38.772;2023-12-20T02:52:13;98125.63;;;4.09;94.48
71948;BME280;63257;55.082;38.772;2023-12-20T02:54:39;98100.97;;;3.99;94.30
71948;BME280;63257;55.082;38.772;2023-12-20T02:57:05;98120.50;;;4.07;94.41
71948;BME280;63257;55.082;38.772;2023-12-20T02:59:30;98083.44;;;4.01;94.00
71948;BME280;63257;55.082;38.772;2023-12-20T03:01:56;98102.13;;;4.09;93.76
71948;BME280;63257;55.082;38.772;2023-12-20T03:04:22;98093.09;;;4.15;93.69
71948;BME280;63257;55.082;38.772;2023-12-20T03:06:48;98074.69;;;4.02;92.98
71948;BME280;63257;55.082;38.772;2023-12-20T03:09:13;98106.72;;;4.05;93.31
71948;BME280;63257;55.082;38.772;2023-12-20T03:11:39;98118.75;;;4.08;93.29
71948;BME280;63257;55.082;38.772;2023-12-20T03:14:05;98114.44;;;4.07;92.98
71948;BME280;63257;55.082;38.772;2023-12-20T03:16:31;98108.53;;;4.03;93.06
71948;BME280;63257;55.082;38.772;2023-12-20T03:18:58;98092.56;;;3.94;92.94
71948;BME280;63257;55.082;38.772;2023-12-20T03:21:24;98109.13;;;4.08;92.85
71948;BME280;63257;55.082;38.772;2023-12-20T03:23:50;98100.28;;;4.11;92.36
71948;BME280;63257;55.082;38.772;2023-12-20T03:26:16;98100.31;;;3.95;93.62
71948;BME280;63257;55.082;38.772;2023-12-20T03:28:42;98123.47;;;4.01;93.69
71948;BME280;63257;55.082;38.772;2023-12-20T03:31:09;98106.53;;;3.93;93.52
71948;BME280;63257;55.082;38.772;2023-12-20T03:33:35;98127.69;;;4.04;94.13
71948;BME280;63257;55.082;38.772;2023-12-20T03:36:01;98111.25;;;4.02;93.65
71948;BME280;63257;55.082;38.772;2023-12-20T03:38:27;98122.53;;;4.02;93.29
71948;BME280;63257;55.082;38.772;2023-12-20T03:40:52;98104.78;;;3.93;93.55
71948;BME280;63257;55.082;38.772;2023-12-20T03:43:18;98127.69;;;4.04;93.59
71948;BME280;63257;55.082;38.772;2023-12-20T03:45:44;98127.09;;;3.99;93.61
71948;BME280;63257;55.082;38.772;2023-12-20T03:48:10;98113.72;;;3.89;92.97
71948;BME280;63257;55.082;38.772;2023-12-20T03:50:36;98128.19;;;3.95;93.14
71948;BME280;63257;55.082;38.772;2023-12-20T03:53:01;98145.09;;;4.03;93.51
71948;BME280;63257;55.082;38.772;2023-12-20T03:55:27;98151.19;;;4.04;92.92
71948;BME280;63257;55.082;38.772;2023-12-20T03:57:53;98152.84;;;4.05;94.36
71948;BME280;63257;55.082;38.772;2023-12-20T04:00:19;98138.28;;;4.01;94.42
71948;BME280;63257;55.082;38.772;2023-12-20T04:02:45;98153.00;;;4.02;95.31
71948;BME280;63257;55.082;38.772;2023-12-20T04:05:11;98165.06;;;4.04;95.72
71948;BME280;63257;55.082;38.772;2023-12-20T04:07:37;98161.03;;;3.99;96.18
71948;BME280;63257;55.082;38.772;2023-12-20T04:10:04;98152.34;;;3.98;96.50
71948;BME280;63257;55.082;38.772;2023-12-20T04:12:32;98125.31;;;3.83;96.61
71948;BME280;63257;55.082;38.772;2023-12-20T04:14:58;98141.41;;;3.92;96.85
71948;BME280;63257;55.082;38.772;2023-12-20T04:17:24;98116.31;;;3.89;97.16
71948;BME280;63257;55.082;38.772;2023-12-20T04:19:50;98130.03;;;3.93;96.96
71948;BME280;63257;55.082;38.772;2023-12-20T04:22:17;98125.81;;;3.90;97.04
71948;BME280;63257;55.082;38.772;2023-12-20T04:24:44;98124.97;;;3.89;97.03
71948;BME280;63257;55.082;38.772;2023-12-20T04:27:10;98109.16;;;3.77;97.09
71948;BME280;63257;55.082;38.772;2023-12-20T04:29:36;98145.69;;;3.93;97.12
71948;BME280;63257;55.082;38.772;2023-12-20T04:32:02;98131.78;;;3.76;96.59
71948;BME280;63257;55.082;38.772;2023-12-20T04:34:28;98156.13;;;3.93;96.73
71948;BME280;63257;55.082;38.772;2023-12-20T04:36:54;98138.38;;;3.83;96.65
71948;BME280;63257;55.082;38.772;2023-12-20T04:39:20;98148.06;;;3.97;96.46
71948;BME280;63257;55.082;38.772;2023-12-20T04:41:45;98121.13;;;3.81;96.29
71948;BME280;63257;55.082;38.772;2023-12-20T04:44:13;98129.59;;;3.84;95.97
71948;BME280;63257;55.082;38.772;2023-12-20T04:46:39;98127.00;;;3.84;96.15
71948;BME280;63257;55.082;38.772;2023-12-20T04:49:05;98131.97;;;3.89;95.98
71948;BME280;63257;55.082;38.772;2023-12-20T04:51:34;98160.09;;;4.00;96.46
71948;BME280;63257;55.082;38.772;2023-12-20T04:54:01;98142.66;;;3.84;96.41
71948;BME280;63257;55.082;38.772;2023-12-20T04:56:28;98152.59;;;3.94;97.25
71948;BME280;63257;55.082;38.772;2023-12-20T04:58:54;98156.13;;;3.93;96.84
71948;BME280;63257;55.082;38.772;2023-12-20T05:01:20;98146.03;;;3.86;97.54
71948;BME280;63257;55.082;38.772;2023-12-20T05:03:47;98165.56;;;3.95;97.69
71948;BME280;63257;55.082;38.772;2023-12-20T05:06:13;98149.38;;;3.88;98.04
71948;BME280;63257;55.082;38.772;2023-12-20T05:08:38;98148.03;;;3.81;98.07
71948;BME280;63257;55.082;38.772;2023-12-20T05:11:04;98156.97;;;3.77;97.33
71948;BME280;63257;55.082;38.772;2023-12-20T05:13:30;98170.13;;;3.92;97.73
71948;BME280;63257;55.082;38.772;2023-12-20T05:15:56;98137.69;;;3.80;97.33
71948;BME280;63257;55.082;38.772;2023-12-20T05:18:22;98166.22;;;3.83;97.01
71948;BME280;63257;55.082;38.772;2023-12-20T05:20:50;98164.97;;;3.90;97.01
71948;BME280;63257;55.082;38.772;2023-12-20T05:23:16;98180.03;;;4.01;96.33
71948;BME280;63257;55.082;38.772;2023-12-20T05:25:43;98193.28;;;3.98;96.62
71948;BME280;63257;55.082;38.772;2023-12-20T05:28:09;98167.66;;;3.88;96.87
71948;BME280;63257;55.082;38.772;2023-12-20T05:30:34;98156.13;;;3.77;96.82
71948;BME280;63257;55.082;38.772;2023-12-20T05:33:00;98190.66;;;3.98;96.56
71948;BME280;63257;55.082;38.772;2023-12-20T05:35:26;98180.41;;;3.95;96.48
71948;BME280;63257;55.082;38.772;2023-12-20T05:37:52;98183.59;;;4.00;96.19
71948;BME280;63257;55.082;38.772;2023-12-20T05:40:18;98183.59;;;4.00;96.38
71948;BME280;63257;55.082;38.772;2023-12-20T05:42:44;98159.00;;;3.88;96.09
71948;BME280;63257;55.082;38.772;2023-12-20T05:45:10;98158.72;;;3.93;96.20
71948;BME280;63257;55.082;38.772;2023-12-20T05:47:36;98159.91;;;3.87;95.85
71948;BME280;63257;55.082;38.772;2023-12-20T05:50:03;98178.63;;;3.95;95.80
71948;BME280;63257;55.082;38.772;2023-12-20T05:52:31;98180.31;;;3.96;95.67
71948;BME280;63257;55.082;38.772;2023-12-20T05:54:57;98178.44;;;3.98;94.90
71948;BME280;63257;55.082;38.772;2023-12-20T05:57:31;98198.66;;;4.11;94.94
71948;BME280;63257;55.082;38.772;2023-12-20T05:59:58;98206.75;;;4.06;94.84
71948;BME280;63257;55.082;38.772;2023-12-20T06:02:23;98184.69;;;3.96;94.78
71948;BME280;63257;55.082;38.772;2023-12-20T06:04:49;98180.03;;;4.01;94.43
71948;BME280;63257;55.082;38.772;2023-12-20T06:07:16;98198.75;;;4.09;94.51
71948;BME280;63257;55.082;38.772;2023-12-20T06:09:43;98176.78;;;3.97;94.13
71948;BME280;63257;55.082;38.772;2023-12-20T06:12:09;98194.69;;;4.03;94.34
71948;BME280;63257;55.082;38.772;2023-12-20T06:14:36;98197.09;;;4.08;93.90
71948;BME280;63257;55.082;38.772;2023-12-20T06:17:02;98176.88;;;3.96;93.89
71948;BME280;63257;55.082;38.772;2023-12-20T06:19:28;98192.50;;;4.12;94.00
71948;BME280;63257;55.082;38.772;2023-12-20T06:21:54;98196.81;;;4.13;93.74
71948;BME280;63257;55.082;38.772;2023-12-20T06:24:19;98181.13;;;3.97;94.42
71948;BME280;63257;55.082;38.772;2023-12-20T06:26:47;98171.22;;;3.87;95.01
71948;BME280;63257;55.082;38.772;2023-12-20T06:29:13;98201.09;;;3.98;95.84
71948;BME280;63257;55.082;38.772;2023-12-20T06:31:39;98207.16;;;3.98;95.92
71948;BME280;63257;55.082;38.772;2023-12-20T06:34:05;98187.88;;;3.85;95.90
71948;BME280;63257;55.082;38.772;2023-12-20T06:36:31;98172.44;;;3.80;96.37
71948;BME280;63257;55.082;38.772;2023-12-20T06:38:57;98208.34;;;3.93;96.48
71948;BME280;63257;55.082;38.772;2023-12-20T06:41:24;98200.75;;;3.88;96.17
71948;BME280;63257;55.082;38.772;2023-12-20T06:43:50;98192.31;;;3.83;95.79
71948;BME280;63257;55.082;38.772;2023-12-20T06:46:17;98190.41;;;3.86;95.31
71948;BME280;63257;55.082;38.772;2023-12-20T06:48:43;98208.00;;;3.99;95.79
71948;BME280;63257;55.082;38.772;2023-12-20T06:51:15;98202.97;;;3.96;96.11
71948;BME280;63257;55.082;38.772;2023-12-20T06:53:42;98188.31;;;3.93;96.18
71948;BME280;63257;55.082;38.772;2023-12-20T06:56:10;98173.03;;;3.69;96.83
71948;BME280;63257;55.082;38.772;2023-12-20T06:58:36;98185.50;;;3.80;96.72
71948;BME280;63257;55.082;38.772;2023-12-20T07:01:03;98208.94;;;3.98;96.33
71948;BME280;63257;55.082;38.772;2023-12-20T07:03:30;98213.06;;;4.02;95.95
71948;BME280;63257;55.082;38.772;2023-12-20T07:05:55;98186.94;;;3.86;96.13
71948;BME280;63257;55.082;38.772;2023-12-20T07:08:21;98218.19;;;4.03;95.73
71948;BME280;63257;55.082;38.772;2023-12-20T07:10:47;98229.66;;;4.01;95.22
71948;BME280;63257;55.082;38.772;2023-12-20T07:13:13;98232.94;;;4.04;95.10
71948;BME280;63257;55.082;38.772;2023-12-20T07:15:39;98239.00;;;4.05;95.08
71948;BME280;63257;55.082;38.772;2023-12-20T07:18:05;98231.34;;;4.02;95.18
71948;BME280;63257;55.082;38.772;2023-12-20T07:20:32;98239.16;;;4.02;94.91
71948;BME280;63257;55.082;38.772;2023-12-20T07:22:57;98223.69;;;3.99;94.50
71948;BME280;63257;55.082;38.772;2023-12-20T07:25:23;98224.84;;;3.93;94.73
71948;BME280;63257;55.082;38.772;2023-12-20T07:27:49;98239.16;;;4.02;94.79
71948;BME280;63257;55.082;38.772;2023-12-20T07:30:15;98229.81;;;3.98;94.50
71948;BME280;63257;55.082;38.772;2023-12-20T07:32:40;98221.63;;;3.88;94.92
71948;BME280;63257;55.082;38.772;2023-12-20T07:35:06;98225.38;;;4.00;94.29
71948;BME280;63257;55.082;38.772;2023-12-20T07:37:32;98224.34;;;4.02;93.46
71948;BME280;63257;55.082;38.772;2023-12-20T07:39:58;98233.38;;;4.13;93.08
71948;BME280;63257;55.082;38.772;2023-12-20T07:42:24;98223.25;;;4.06;92.72
71948;BME280;63257;55.082;38.772;2023-12-20T07:44:50;98237.16;;;4.23;92.73
71948;BME280;63257;55.082;38.772;2023-12-20T07:47:15;98235.22;;;4.27;92.37
71948;BME280;63257;55.082;38.772;2023-12-20T07:49:45;98250.91;;;4.27;91.86
71948;BME280;63257;55.082;38.772;2023-12-20T07:52:11;98231.44;;;4.16;91.90
71948;BME280;63257;55.082;38.772;2023-12-20T07:54:37;98245.94;;;4.22;91.99
71948;BME280;63257;55.082;38.772;2023-12-20T07:57:03;98233.44;;;4.27;91.49
71948;BME280;63257;55.082;38.772;2023-12-20T07:59:29;98242.28;;;4.40;91.02
71948;BME280;63257;55.082;38.772;2023-12-20T08:01:54;98208.00;;;4.31;90.79
71948;BME280;63257;55.082;38.772;2023-12-20T08:04:21;98210.63;;;4.31;90.35
71948;BME280;63257;55.082;38.772;2023-12-20T08:06:46;98225.78;;;4.40;90.67
71948;BME280;63257;55.082;38.772;2023-12-20T08:09:12;98203.72;;;4.30;90.45
71948;BME280;63257;55.082;38.772;2023-12-20T08:11:38;98212.13;;;4.35;89.89
71948;BME280;63257;55.082;38.772;2023-12-20T08:14:04;98227.22;;;4.46;89.42
71948;BME280;63257;55.082;38.772;2023-12-20T08:16:29;98225.03;;;4.38;89.21
71948;BME280;63257;55.082;38.772;2023-12-20T08:18:55;98241.13;;;4.46;89.62
71948;BME280;63257;55.082;38.772;2023-12-20T08:21:21;98227.91;;;4.49;89.68
71948;BME280;63257;55.082;38.772;2023-12-20T08:23:48;98223.41;;;4.51;89.50
71948;BME280;63257;55.082;38.772;2023-12-20T08:26:13;98206.91;;;4.35;89.66
71948;BME280;63257;55.082;38.772;2023-12-20T08:28:39;98215.59;;;4.51;89.41
71948;BME280;63257;55.082;38.772;2023-12-20T08:31:05;98196.88;;;4.43;89.90
71948;BME280;63257;55.082;38.772;2023-12-20T08:33:31;98191.47;;;4.46;89.04
71948;BME280;63257;55.082;38.772;2023-12-20T08:35:56;98204.63;;;4.45;88.83
71948;BME280;63257;55.082;38.772;2023-12-20T08:38:22;98214.38;;;4.57;88.99
71948;BME280;63257;55.082;38.772;2023-12-20T08:40:48;98209.34;;;4.54;89.01
71948;BME280;63257;55.082;38.772;2023-12-20T08:43:14;98207.66;;;4.53;88.74
71948;BME280;63257;55.082;38.772;2023-12-20T08:45:40;98207.56;;;4.54;88.20
71948;BME280;63257;55.082;38.772;2023-12-20T08:48:06;98198.63;;;4.58;87.83
71948;BME280;63257;55.082;38.772;2023-12-20T08:50:32;98213.88;;;4.66;87.56
71948;BME280;63257;55.082;38.772;2023-12-20T08:52:58;98204.34;;;4.65;87.22
71948;BME280;63257;55.082;38.772;2023-12-20T08:55:24;98206.38;;;4.60;87.39
71948;BME280;63257;55.082;38.772;2023-12-20T08:57:50;98216.59;;;4.65;86.50
71948;BME280;63257;55.082;38.772;2023-12-20T09:00:16;98191.47;;;4.62;86.80
71948;BME280;63257;55.082;38.772;2023-12-20T09:02:43;98185.41;;;4.46;87.31
71948;BME280;63257;55.082;38.772;2023-12-20T09:05:08;98189.81;;;4.45;87.41
71948;BME280;63257;55.082;38.772;2023-12-20T09:07:34;98198.56;;;4.44;87.57
71948;BME280;63257;55.082;38.772;2023-12-20T09:10:00;98189.13;;;4.57;86.62
71948;BME280;63257;55.082;38.772;2023-12-20T09:12:26;98193.66;;;4.70;86.61
71948;BME280;63257;55.082;38.772;2023-12-20T09:14:53;98205.03;;;4.69;85.99
71948;BME280;63257;55.082;38.772;2023-12-20T09:17:19;98206.72;;;4.70;86.61
71948;BME280;63257;55.082;38.772;2023-12-20T09:19:46;98190.44;;;4.65;86.38
71948;BME280;63257;55.082;38.772;2023-12-20T09:22:12;98205.59;;;4.74;85.98
71948;BME280;63257;55.082;38.772;2023-12-20T09:24:38;98185.88;;;4.68;86.04
71948;BME280;63257;55.082;38.772;2023-12-20T09:27:05;98200.19;;;4.77;86.57
71948;BME280;63257;55.082;38.772;2023-12-20T09:29:31;98192.88;;;4.68;85.96
71948;BME280;63257;55.082;38.772;2023-12-20T09:31:57;98189.84;;;4.59;86.14
71948;BME280;63257;55.082;38.772;2023-12-20T09:34:23;98206.94;;;4.81;85.48
71948;BME280;63257;55.082;38.772;2023-12-20T09:36:50;98209.28;;;4.86;85.67
71948;BME280;63257;55.082;38.772;2023-12-20T09:39:17;98206.94;;;4.81;85.80
71948;BME280;63257;55.082;38.772;2023-12-20T09:41:58;98195.31;;;4.71;85.98
71948;BME280;63257;55.082;38.772;2023-12-20T09:44:25;98192.59;;;4.72;86.23
71948;BME280;63257;55.082;38.772;2023-12-20T09:46:52;98193.06;;;4.65;86.05
71948;BME280;63257;55.082;38.772;2023-12-20T09:49:20;98201.53;;;4.68;86.74
71948;BME280;63257;55.082;38.772;2023-12-20T09:51:47;98194.25;;;4.59;86.64
71948;BME280;63257;55.082;38.772;2023-12-20T09:54:17;98210.84;;;4.74;85.73
71948;BME280;63257;55.082;38.772;2023-12-20T09:56:47;98196.28;;;4.84;85.96
71948;BME280;63257;55.082;38.772;2023-12-20T09:59:13;98211.56;;;4.92;85.24
71948;BME280;63257;55.082;38.772;2023-12-20T10:01:40;98215.69;;;4.80;85.13
71948;BME280;63257;55.082;38.772;2023-12-20T10:04:08;98203.75;;;4.76;85.86
71948;BME280;63257;55.082;38.772;2023-12-20T10:06:44;98196.09;;;4.73;86.06
71948;BME280;63257;55.082;38.772;2023-12-20T10:09:11;98195.34;;;4.55;86.62
71948;BME280;63257;55.082;38.772;2023-12-20T10:11:37;98197.03;;;4.56;86.31
71948;BME280;63257;55.082;38.772;2023-12-20T10:14:04;98195.09;;;4.59;86.36
71948;BME280;63257;55.082;38.772;2023-12-20T10:16:31;98172.84;;;4.52;86.16
71948;BME280;63257;55.082;38.772;2023-12-20T10:18:58;98188.25;;;4.57;86.48
71948;BME280;63257;55.082;38.772;2023-12-20T10:21:25;98191.56;;;4.61;85.98
71948;BME280;63257;55.082;38.772;2023-12-20T10:23:53;98210.25;;;4.69;86.41
71948;BME280;63257;55.082;38.772;2023-12-20T10:26:20;98210.16;;;4.70;86.41
71948;BME280;63257;55.082;38.772;2023-12-20T10:28:56;98204.66;;;4.75;85.61
71948;BME280;63257;55.082;38.772;2023-12-20T10:31:34;98198.28;;;4.65;86.35
71948;BME280;63257;55.082;38.772;2023-12-20T10:34:02;98197.88;;;4.56;86.53
71948;BME280;63257;55.082;38.772;2023-12-20T10:36:32;98185.56;;;4.58;86.73
71948;BME280;63257;55.082;38.772;2023-12-20T10:38:59;98188.25;;;4.57;86.38
71948;BME280;63257;55.082;38.772;2023-12-20T10:41:30;98220.72;;;4.69;86.93
71948;BME280;63257;55.082;38.772;2023-12-20T10:44:03;98214.31;;;4.58;86.51
71948;BME280;63257;55.082;38.772;2023-12-20T10:46:33;98192.84;;;4.37;87.33
71948;BME280;63257;55.082;38.772;2023-12-20T10:49:04;98198.75;;;4.41;87.19
71948;BME280;63257;55.082;38.772;2023-12-20T10:51:31;98213.88;;;4.50;87.06
71948;BME280;63257;55.082;38.772;2023-12-20T10:53:57;98218.28;;;4.50;87.20
71948;BME280;63257;55.082;38.772;2023-12-20T10:56:23;98220.91;;;4.50;87.85
71948;BME280;63257;55.082;38.772;2023-12-20T10:58:50;98202.00;;;4.45;87.50
71948;BME280;63257;55.082;38.772;2023-12-20T11:01:17;98190.66;;;4.46;86.56
71948;BME280;63257;55.082;38.772;2023-12-20T11:03:51;98209.53;;;4.51;87.38
71948;BME280;63257;55.082;38.772;2023-12-20T11:06:33;98215.59;;;4.51;87.30
71948;BME280;63257;55.082;38.772;2023-12-20T11:09:13;98211.53;;;4.46;87.85
71948;BME280;63257;55.082;38.772;2023-12-20T11:14:23;98210.88;;;4.42;88.17
71948;BME280;63257;55.082;38.772;2023-12-20T11:16:50;98196.47;;;4.35;87.74
71948;BME280;63257;55.082;38.772;2023-12-20T11:19:17;98194.44;;;4.24;88.63
71948;BME280;63257;55.082;38.772;2023-12-20T11:21:42;98200.69;;;4.21;88.56
71948;BME280;63257;55.082;38.772;2023-12-20T11:24:09;98210.81;;;4.28;88.46
71948;BME280;63257;55.082;38.772;2023-12-20T11:26:35;98207.41;;;4.25;89.00
71948;BME280;63257;55.082;38.772;2023-12-20T11:31:55;98195.38;;;4.07;89.39
71948;BME280;63257;55.082;38.772;2023-12-20T11:34:21;98195.38;;;4.07;89.84
71948;BME280;63257;55.082;38.772;2023-12-20T11:36:46;98210.56;;;4.16;89.29
71948;BME280;63257;55.082;38.772;2023-12-20T11:39:20;98206.75;;;4.06;89.65
71948;BME280;63257;55.082;38.772;2023-12-20T11:41:46;98212.41;;;4.14;89.37
71948;BME280;63257;55.082;38.772;2023-12-20T11:44:17;98200.25;;;4.13;88.94
71948;BME280;63257;55.082;38.772;2023-12-20T11:46:44;98200.59;;;4.07;89.22
71948;BME280;63257;55.082;38.772;2023-12-20T11:49:09;98192.19;;;4.02;89.17
71948;BME280;63257;55.082;38.772;2023-12-20T11:51:40;98231.94;;;4.23;89.08
71948;BME280;63257;55.082;38.772;2023-12-20T11:54:06;98213.22;;;4.15;88.63
71948;BME280;63257;55.082;38.772;2023-12-20T11:56:32;98222.31;;;4.07;89.13
71948;BME280;63257;55.082;38.772;2023-12-20T11:58:58;98214.50;;;4.07;89.15
71948;BME280;63257;55.082;38.772;2023-12-20T12:01:24;98209.28;;;4.07;89.09
71948;BME280;63257;55.082;38.772;2023-12-20T12:04:07;98229.56;;;4.18;89.17
71948;BME280;63257;55.082;38.772;2023-12-20T12:06:33;98223.19;;;4.08;89.68
71948;BME280;63257;55.082;38.772;2023-12-20T12:08:59;98224.28;;;4.20;88.92
71948;BME280;63257;55.082;38.772;2023-12-20T12:11:25;98234.63;;;4.21;88.87
71948;BME280;63257;55.082;38.772;2023-12-20T12:13:51;98216.09;;;4.10;88.99
71948;BME280;63257;55.082;38.772;2023-12-20T12:16:18;98223.09;;;4.10;89.38
71948;BME280;63257;55.082;38.772;2023-12-20T12:18:45;98234.63;;;4.21;89.16
71948;BME280;63257;55.082;38.772;2023-12-20T12:21:18;98228.97;;;4.13;89.33
71948;BME280;63257;55.082;38.772;2023-12-20T12:23:45;98212.66;;;4.10;88.95
71948;BME280;63257;55.082;38.772;2023-12-20T12:26:10;98238.19;;;4.20;89.19
71948;BME280;63257;55.082;38.772;2023-12-20T12:28:37;98242.03;;;4.13;89.00
71948;BME280;63257;55.082;38.772;2023-12-20T12:31:05;98240.19;;;4.15;88.69
71948;BME280;63257;55.082;38.772;2023-12-20T12:33:31;98242.91;;;4.14;89.15
71948;BME280;63257;55.082;38.772;2023-12-20T12:35:57;98243.47;;;4.19;88.91
71948;BME280;63257;55.082;38.772;2023-12-20T12:38:24;98229.75;;;4.15;88.42
71948;BME280;63257;55.082;38.772;2023-12-20T12:40:50;98248.69;;;4.19;88.58
71948;BME280;63257;55.082;38.772;2023-12-20T12:43:16;98250.72;;;4.14;89.18
71948;BME280;63257;55.082;38.772;2023-12-20T12:45:41;98234.88;;;4.01;89.32
71948;BME280;63257;55.082;38.772;2023-12-20T12:48:07;98255.59;;;4.20;88.84
71948;BME280;63257;55.082;38.772;2023-12-20T12:50:33;98241.78;;;4.02;88.20
71948;BME280;63257;55.082;38.772;2023-12-20T12:52:59;98256.19;;;4.09;89.33
71948;BME280;63257;55.082;38.772;2023-12-20T12:55:25;98246.16;;;4.01;89.51
71948;BME280;63257;55.082;38.772;2023-12-20T12:57:51;98260.22;;;3.99;89.34
71948;BME280;63257;55.082;38.772;2023-12-20T13:00:17;98242.53;;;3.88;89.72
71948;BME280;63257;55.082;38.772;2023-12-20T13:02:45;98252.31;;;4.00;90.12